Hauptseite
METAR-TAF:

METAR-TAF

Flughäfen :

Flughafen Ghat

Ghat, Libyen

Breite: 25-08N, Länge: 010-09E, Höhe: 699 m

METAR: fehlend

Zeit: 08:34 (06:34 UTC)

Prognose

Neuester Wetterbericht von vor 1 Stunde und 34 Minuten, um 05:00 UTC
Gültige Prognose vom 13 um 06 UTC bis 14 um 06 UTC
Wind 2 kt aus unterschiedlichen Richtungen
Sichtweite: 8000 m
Übergehend zu
vom 13 um 15 UTC bis 13 um 17 UTC
Wind 8 kt aus Ost

TAF: HLGT 130500Z 1306/1406 VRB02KT 8000 NSC BECMG 1315/1317 08008KT

Wetterbeobachtungen und Prognosen von mehr als 4000 Flughäfen (METAR und TAF Bericht).

Die verfügbaren Stationen werden durch gelbe und rote Markierungen auf der Karte dargestellt.

Führen Sie die Maus auf sie, um den Namen der Station zu sehen.

Darauf klicken, um die Beobachtung von Wetterbeobachtungen und Prognosen zu sehen.

Um die Karte zu ändern : klicken Sie auf den grünen Tasten mit einem schwarzen Kreuz Zum Vergrößern, auf den grünen Button mit einem Gedankenstrich zu verkleinern, oder auf die grünen Pfeile für benachbarte Karten.


METAR-TAF: